Current Weather

Al Kharj

Al Kharj, Saudi Arabia (OEKJ)

Report from: Monday, July 22, 2024 9:00 AM UTC
Current time: Monday, July 22, 2024 10:06 AM UTC

Nearby weather – Weather history – Daily summaries
Weather forecast

Temperature44.0°C (111.2°F)
Heat index40.4°C (104.7°F)
Dew point2.0°C (35.6°F)
Winds 10 kts (5.1 m/s, 11.5 mph) West (260°)
Clouds Sky clear
Altimeter29.65 in.Hg (1004 mB)
Relative humidity8 %
Density altitude3,651 ft. (1,113 m)
Remarks Ceiling and visibility OK
Flight conditions Visual Meteorological Conditions
Raw dataOEKJ 220900Z 26010KT CAVOK 44/02 Q1004
An error has occurred. This application may no longer respond until reloaded. Reload 🗙